createdAt,value
2019-04-16T00:02:39.886Z,23.93
2019-04-16T00:05:19.950Z,21.97
2019-04-16T00:07:56.210Z,22.70
2019-04-16T00:10:49.052Z,24.37
2019-04-16T00:13:36.991Z,20.17
2019-04-16T00:16:05.846Z,21.63
2019-04-16T00:18:37.676Z,23.60
2019-04-16T00:21:46.523Z,21.17
2019-04-16T00:24:20.672Z,23.00
2019-04-16T00:26:57.981Z,22.70
2019-04-16T00:29:24.917Z,23.63
2019-04-16T00:32:09.146Z,25.50
2019-04-16T00:34:44.478Z,22.90
2019-04-16T00:37:12.666Z,20.27
2019-04-16T00:39:41.391Z,22.50
2019-04-16T00:42:12.720Z,24.27
2019-04-16T00:44:41.811Z,23.30
2019-04-16T00:47:12.143Z,21.40
2019-04-16T00:49:41.127Z,22.87
2019-04-16T00:52:10.306Z,22.57
2019-04-16T00:54:42.408Z,21.53
2019-04-16T00:57:10.455Z,25.50
2019-04-16T00:59:39.959Z,19.87
2019-04-16T01:02:14.492Z,20.27
2019-04-16T01:04:48.906Z,21.67
2019-04-16T01:07:19.868Z,23.30
2019-04-16T01:09:48.989Z,22.98
2019-04-16T01:12:20.899Z,23.10
2019-04-16T01:14:53.420Z,23.30
2019-04-16T01:17:22.493Z,24.53
2019-04-16T01:19:52.817Z,23.70
2019-04-16T01:22:23.706Z,21.53
2019-04-16T01:24:55.236Z,22.33
2019-04-16T01:27:32.282Z,21.83
2019-04-16T01:30:06.169Z,23.40
2019-04-16T01:33:14.254Z,21.17
2019-04-16T01:35:52.743Z,22.40
2019-04-16T01:38:30.768Z,20.30
2019-04-16T01:41:04.311Z,22.90
2019-04-16T01:43:33.756Z,21.10
2019-04-16T01:46:06.413Z,22.70
2019-04-16T01:48:39.866Z,21.85
2019-04-16T01:51:12.653Z,20.40
2019-04-16T01:53:42.463Z,23.30
2019-04-16T01:56:16.065Z,24.27
2019-04-16T01:58:48.042Z,24.10
2019-04-16T02:01:21.872Z,25.82
2019-04-16T02:03:55.442Z,22.80
2019-04-16T02:06:27.158Z,21.82
2019-04-16T02:08:56.554Z,23.75
2019-04-16T02:11:25.841Z,22.67
2019-04-16T02:13:59.255Z,22.65
2019-04-16T02:16:30.792Z,19.00
2019-04-16T02:19:01.368Z,22.82
2019-04-16T02:21:30.557Z,23.27
2019-04-16T02:23:59.860Z,23.30
2019-04-16T02:26:32.838Z,23.27
2019-04-16T02:29:03.359Z,22.00
2019-04-16T02:31:32.411Z,22.27
2019-04-16T02:34:03.329Z,21.73
2019-04-16T02:36:32.634Z,21.02
2019-04-16T02:39:06.538Z,19.60
2019-04-16T02:41:43.825Z,21.60
2019-04-16T02:44:15.926Z,24.32
2019-04-16T02:46:42.596Z,24.20
2019-04-16T02:49:16.327Z,23.98
2019-04-16T02:52:00.333Z,23.52
2019-04-16T02:54:50.256Z,21.17
2019-04-16T02:57:44.075Z,23.42
2019-04-16T03:00:31.066Z,23.18
2019-04-16T03:03:04.564Z,21.00
2019-04-16T03:05:43.520Z,20.82
2019-04-16T03:08:14.811Z,24.10
2019-04-16T03:10:44.653Z,22.75
2019-04-16T03:13:14.632Z,23.52
2019-04-16T03:16:02.755Z,24.52
2019-04-16T03:18:40.467Z,23.22
2019-04-16T03:21:10.960Z,22.90
2019-04-16T03:23:41.581Z,24.47
2019-04-16T03:26:16.163Z,23.70
2019-04-16T03:28:44.264Z,23.60
2019-04-16T03:31:22.439Z,20.68
2019-04-16T03:33:50.584Z,24.77
2019-04-16T03:36:18.491Z,25.97
2019-04-16T03:38:47.744Z,24.43
2019-04-16T03:41:17.534Z,23.65
2019-04-16T03:43:49.416Z,24.92
2019-04-16T03:46:19.941Z,24.00
2019-04-16T03:48:49.269Z,23.87
2019-04-16T03:51:23.049Z,19.98
2019-04-16T03:53:51.888Z,23.22
2019-04-16T03:56:21.067Z,23.40
2019-04-16T03:58:50.200Z,23.77
2019-04-16T04:01:19.681Z,23.45
2019-04-16T04:03:57.578Z,25.68
2019-04-16T04:06:25.506Z,23.15
2019-04-16T04:09:02.899Z,23.12
2019-04-16T04:11:31.714Z,22.58
2019-04-16T04:14:03.713Z,21.50
2019-04-16T04:16:33.417Z,18.30
2019-04-16T04:19:04.754Z,21.65
2019-04-16T04:21:34.077Z,22.50
2019-04-16T04:24:05.464Z,23.55
2019-04-16T04:26:34.111Z,22.48
2019-04-16T04:29:06.867Z,23.32
2019-04-16T04:31:38.999Z,20.85
2019-04-16T04:34:11.049Z,22.58
2019-04-16T04:36:41.366Z,23.20
2019-04-16T04:39:14.724Z,22.95
2019-04-16T04:41:44.462Z,22.95
2019-04-16T04:44:17.882Z,21.50
2019-04-16T04:46:50.154Z,23.10
2019-04-16T04:49:24.133Z,23.02
2019-04-16T04:51:54.429Z,21.80
2019-04-16T04:54:25.229Z,22.58
2019-04-16T04:56:56.436Z,23.83
2019-04-16T04:59:25.182Z,22.55
2019-04-16T05:01:57.683Z,20.00
2019-04-16T05:04:34.453Z,22.10
2019-04-16T05:07:05.377Z,24.07
2019-04-16T05:09:36.397Z,24.32
2019-04-16T05:12:08.135Z,22.85
2019-04-16T05:14:38.044Z,25.10
2019-04-16T05:17:08.339Z,22.93
2019-04-16T05:19:39.743Z,22.20
2019-04-16T05:22:08.815Z,22.27
2019-04-16T05:24:37.992Z,21.70
2019-04-16T05:27:09.434Z,21.00
2019-04-16T05:29:38.696Z,21.55
2019-04-16T05:32:07.701Z,22.23
2019-04-16T05:34:38.490Z,22.62
2019-04-16T05:37:07.613Z,19.70
2019-04-16T05:39:36.803Z,24.00
2019-04-16T05:42:07.178Z,21.27
2019-04-16T05:44:36.276Z,20.10
2019-04-16T05:47:04.866Z,20.23
2019-04-16T05:49:33.834Z,23.47
2019-04-16T05:52:05.874Z,22.77
2019-04-16T05:54:52.272Z,21.77
2019-04-16T05:57:26.518Z,22.80
2019-04-16T05:59:57.593Z,21.67
2019-04-16T06:02:38.938Z,21.73
2019-04-16T06:05:12.041Z,20.97
2019-04-16T06:07:44.226Z,18.77
2019-04-16T06:10:17.098Z,19.20
2019-04-16T06:13:17.916Z,20.87
2019-04-16T06:16:05.953Z,19.07
2019-04-16T06:18:52.346Z,17.33
2019-04-16T06:21:40.425Z,20.17
2019-04-16T06:24:18.905Z,18.87
2019-04-16T06:27:07.031Z,17.70
2019-04-16T06:30:02.200Z,17.50
2019-04-16T06:32:41.809Z,17.03
2019-04-16T06:35:42.608Z,17.90
2019-04-16T06:38:22.031Z,18.67
2019-04-16T06:41:10.471Z,17.57
2019-04-16T06:43:42.812Z,16.10
2019-04-16T06:46:30.902Z,15.73
2019-04-16T06:49:19.243Z,15.07
2019-04-16T06:52:05.859Z,16.00
2019-04-16T06:54:53.554Z,16.20
2019-04-16T06:57:34.090Z,11.77
2019-04-16T07:00:12.113Z,14.70
2019-04-16T07:03:03.325Z,13.80
2019-04-16T07:05:39.279Z,14.70
2019-04-16T07:08:18.525Z,14.50
2019-04-16T07:10:54.562Z,15.93
2019-04-16T07:13:28.778Z,14.57
2019-04-16T07:15:57.787Z,13.27
2019-04-16T07:18:28.123Z,13.67
2019-04-16T07:21:00.033Z,14.37
2019-04-16T07:23:31.358Z,14.10
2019-04-16T07:26:03.751Z,14.80
2019-04-16T07:28:38.400Z,13.70
2019-04-16T07:31:46.750Z,11.77
2019-04-16T07:34:31.431Z,13.27
2019-04-16T07:37:11.323Z,13.90
2019-04-16T07:40:08.312Z,12.60
2019-04-16T07:42:57.942Z,12.97
2019-04-16T07:45:43.524Z,11.63
2019-04-16T07:48:39.313Z,12.10
2019-04-16T07:51:45.766Z,10.37
2019-04-16T07:54:49.062Z,10.00
2019-04-16T07:57:23.275Z,9.53
2019-04-16T07:59:53.636Z,9.60
2019-04-16T08:02:24.130Z,9.77
2019-04-16T08:04:53.552Z,9.83
2019-04-16T08:07:25.769Z,10.10
2019-04-16T08:10:01.667Z,6.87
2019-04-16T08:12:30.468Z,5.47
2019-04-16T08:15:12.102Z,6.80
2019-04-16T08:17:28.393Z,6.57
2019-04-16T08:19:57.563Z,5.97
2019-04-16T08:22:28.568Z,6.73
2019-04-16T08:25:03.560Z,6.30
2019-04-16T08:27:30.597Z,6.33
2019-04-16T08:30:03.476Z,5.50
2019-04-16T08:32:30.644Z,5.87
2019-04-16T08:34:59.673Z,5.27
2019-04-16T08:37:28.373Z,5.97
2019-04-16T08:39:57.713Z,5.30
2019-04-16T08:42:29.496Z,5.57
2019-04-16T08:44:57.891Z,5.30
2019-04-16T08:47:30.410Z,4.23
2019-04-16T08:49:59.578Z,3.60
2019-04-16T08:52:30.486Z,3.60
2019-04-16T08:54:59.617Z,4.57
2019-04-16T08:57:32.149Z,4.50
2019-04-16T09:00:00.352Z,3.90
2019-04-16T09:02:29.136Z,3.90
2019-04-16T09:04:58.503Z,3.93
2019-04-16T09:07:41.235Z,4.40
2019-04-16T09:10:23.101Z,4.57
2019-04-16T09:13:02.289Z,4.10
2019-04-16T09:15:29.083Z,4.93
2019-04-16T09:18:16.086Z,4.00
2019-04-16T09:20:45.632Z,4.17
2019-04-16T09:23:17.071Z,4.20
2019-04-16T09:26:13.472Z,4.13
2019-04-16T09:29:01.502Z,3.80
2019-04-16T09:31:47.074Z,2.80
2019-04-16T09:34:31.336Z,3.90
2019-04-16T09:37:15.879Z,3.10
2019-04-16T09:40:15.518Z,3.10
2019-04-16T09:42:34.484Z,2.80
2019-04-16T09:45:05.109Z,2.40
2019-04-16T09:47:34.551Z,4.90
2019-04-16T09:50:09.794Z,2.00
2019-04-16T09:52:36.543Z,2.70
2019-04-16T09:55:08.540Z,2.63
2019-04-16T09:57:37.882Z,2.50
2019-04-16T10:00:17.075Z,2.60
2019-04-16T10:02:45.766Z,2.47
2019-04-16T10:05:18.375Z,2.40
2019-04-16T10:07:50.797Z,2.43
2019-04-16T10:10:20.221Z,2.53
2019-04-16T10:12:49.639Z,2.60
2019-04-16T10:15:18.993Z,2.30
2019-04-16T10:17:48.981Z,3.07
2019-04-16T10:20:18.246Z,2.47
2019-04-16T10:22:47.619Z,2.23
2019-04-16T10:25:16.900Z,2.87
2019-04-16T10:27:50.197Z,2.03
2019-04-16T10:30:38.340Z,2.33
2019-04-16T10:33:07.813Z,2.47
2019-04-16T10:35:37.183Z,2.83
2019-04-16T10:38:25.898Z,2.60
2019-04-16T10:41:01.593Z,2.80
2019-04-16T10:43:53.198Z,2.43
2019-04-16T10:46:39.838Z,2.20
2019-04-16T10:49:27.817Z,2.47
2019-04-16T10:52:22.434Z,2.37
2019-04-16T10:55:05.845Z,2.80
2019-04-16T10:57:52.816Z,2.03
2019-04-16T11:00:46.993Z,2.20
2019-04-16T11:03:35.442Z,1.90
2019-04-16T11:06:08.982Z,2.13
2019-04-16T11:08:38.037Z,1.90
2019-04-16T11:11:08.824Z,1.90
2019-04-16T11:13:43.303Z,2.00
2019-04-16T11:16:14.606Z,2.50
2019-04-16T11:18:43.668Z,2.10
2019-04-16T11:21:12.938Z,2.40
2019-04-16T11:23:45.449Z,2.70
2019-04-16T11:26:23.874Z,2.60
2019-04-16T11:29:00.424Z,2.10
2019-04-16T11:31:29.963Z,2.53
2019-04-16T11:33:59.429Z,2.27
2019-04-16T11:36:33.982Z,2.30
2019-04-16T11:39:07.901Z,2.07
2019-04-16T11:41:38.804Z,2.40
2019-04-16T11:44:17.206Z,2.20
2019-04-16T11:46:46.837Z,2.67
2019-04-16T11:49:16.344Z,2.17
2019-04-16T11:51:58.082Z,2.17
2019-04-16T11:54:35.989Z,1.77
2019-04-16T11:57:05.794Z,1.93
2019-04-16T11:59:38.317Z,1.90
2019-04-16T12:02:16.796Z,2.17
2019-04-16T12:05:07.068Z,1.90
2019-04-16T12:07:54.817Z,1.60
2019-04-16T12:10:45.869Z,1.90
2019-04-16T12:13:48.635Z,2.00
2019-04-16T12:16:26.133Z,1.97
2019-04-16T12:19:28.948Z,1.60
2019-04-16T12:22:15.843Z,2.00
2019-04-16T12:24:53.288Z,1.97
2019-04-16T12:27:43.515Z,1.63
2019-04-16T12:30:39.905Z,1.80
2019-04-16T12:33:19.780Z,2.53
2019-04-16T12:36:06.079Z,1.83
2019-04-16T12:39:00.138Z,1.90
2019-04-16T12:41:50.409Z,1.80
2019-04-16T12:44:48.955Z,2.40
2019-04-16T12:47:43.205Z,1.90
2019-04-16T12:50:50.397Z,1.93
2019-04-16T12:53:43.136Z,2.40
2019-04-16T12:56:25.861Z,2.07
2019-04-16T12:59:22.888Z,2.10
2019-04-16T13:02:02.213Z,2.40
2019-04-16T13:04:45.735Z,2.30
2019-04-16T13:07:22.610Z,1.83
2019-04-16T13:10:17.238Z,1.73
2019-04-16T13:13:05.148Z,2.03
2019-04-16T13:15:59.290Z,2.30
2019-04-16T13:18:57.047Z,1.73
2019-04-16T13:21:29.875Z,2.37
2019-04-16T13:24:04.748Z,1.67
2019-04-16T13:26:48.201Z,1.60
2019-04-16T13:29:19.649Z,1.90
2019-04-16T13:31:48.963Z,2.17
2019-04-16T13:34:23.338Z,2.00
2019-04-16T13:36:52.448Z,2.90
2019-04-16T13:39:40.419Z,2.47
2019-04-16T13:42:11.516Z,2.33
2019-04-16T13:44:47.430Z,2.07
2019-04-16T13:47:16.715Z,2.30
2019-04-16T13:49:50.880Z,2.03
2019-04-16T13:52:25.515Z,2.07
2019-04-16T13:55:08.439Z,2.30
2019-04-16T13:57:37.049Z,2.60
2019-04-16T14:00:15.619Z,2.60
2019-04-16T14:02:54.923Z,2.37
2019-04-16T14:05:25.576Z,2.37
2019-04-16T14:07:57.068Z,2.07
2019-04-16T14:10:27.800Z,1.87
2019-04-16T14:12:58.254Z,2.30
2019-04-16T14:15:38.957Z,2.60
2019-04-16T14:18:07.993Z,1.90
2019-04-16T14:20:43.502Z,2.43
2019-04-16T14:23:18.205Z,2.50
2019-04-16T14:25:48.742Z,2.43
2019-04-16T14:28:18.170Z,2.20
2019-04-16T14:30:49.976Z,1.90
2019-04-16T14:33:31.415Z,2.63
2019-04-16T14:35:59.938Z,2.13
2019-04-16T14:38:46.490Z,2.30
2019-04-16T14:41:16.186Z,2.40
2019-04-16T14:43:49.560Z,2.67
2019-04-16T14:46:19.285Z,2.30
2019-04-16T14:48:48.505Z,2.27
2019-04-16T14:51:23.221Z,2.30
2019-04-16T14:54:14.308Z,2.30
2019-04-16T14:56:46.362Z,2.07
2019-04-16T14:59:35.132Z,1.83
2019-04-16T15:02:30.829Z,2.50
2019-04-16T15:05:17.307Z,2.20
2019-04-16T15:07:53.552Z,2.10
2019-04-16T15:10:45.898Z,2.33
2019-04-16T15:13:33.203Z,2.13
2019-04-16T15:16:14.310Z,2.30
2019-04-16T15:18:55.689Z,2.50
2019-04-16T15:21:56.942Z,2.00
2019-04-16T15:24:37.490Z,2.27
2019-04-16T15:27:41.133Z,1.50
2019-04-16T15:30:38.108Z,2.20
2019-04-16T15:33:29.594Z,1.97
2019-04-16T15:36:06.284Z,2.13
2019-04-16T15:38:53.228Z,2.00
2019-04-16T15:41:26.791Z,2.10
2019-04-16T15:44:13.855Z,2.33
2019-04-16T15:46:52.117Z,11.70
2019-04-16T15:49:49.415Z,2.77
2019-04-16T15:52:46.421Z,2.43
2019-04-16T15:55:35.884Z,2.10
2019-04-16T15:58:19.688Z,1.73
2019-04-16T16:00:59.168Z,2.50
2019-04-16T16:03:56.532Z,2.70
2019-04-16T16:06:28.572Z,2.13
2019-04-16T16:09:16.509Z,2.43
2019-04-16T16:11:56.220Z,2.30
2019-04-16T16:14:32.975Z,2.23
2019-04-16T16:17:02.050Z,2.10
2019-04-16T16:19:36.136Z,2.40
2019-04-16T16:22:11.078Z,2.40
2019-04-16T16:24:42.021Z,2.20
2019-04-16T16:27:09.415Z,2.43
2019-04-16T16:29:38.234Z,2.10
2019-04-16T16:32:07.690Z,2.00
2019-04-16T16:34:37.069Z,2.60
2019-04-16T16:37:06.657Z,2.50
2019-04-16T16:39:35.942Z,2.77
2019-04-16T16:42:05.155Z,2.20
2019-04-16T16:44:34.250Z,2.40
2019-04-16T16:47:19.150Z,2.00
2019-04-16T16:49:47.522Z,1.73
2019-04-16T16:52:38.387Z,2.20
2019-04-16T16:55:11.592Z,2.80
2019-04-16T16:57:44.506Z,4.00
2019-04-16T17:00:31.348Z,8.00
2019-04-16T17:03:11.333Z,9.40
2019-04-16T17:05:43.459Z,13.37
2019-04-16T17:08:14.242Z,23.57
2019-04-16T17:10:43.613Z,13.27
2019-04-16T17:13:19.716Z,10.63
2019-04-16T17:15:49.741Z,7.63
2019-04-16T17:18:18.934Z,10.87
2019-04-16T17:20:50.283Z,11.20
2019-04-16T17:23:18.554Z,9.57
2019-04-16T17:25:47.597Z,7.33
2019-04-16T17:28:16.597Z,8.30
2019-04-16T17:30:50.375Z,9.90
2019-04-16T17:33:23.708Z,9.90
2019-04-16T17:35:57.789Z,8.17
2019-04-16T17:38:27.100Z,6.93
2019-04-16T17:41:01.765Z,8.83
2019-04-16T17:44:02.108Z,6.17
2019-04-16T17:46:48.064Z,5.40
2019-04-16T17:49:32.111Z,4.53
2019-04-16T17:52:24.261Z,5.10
2019-04-16T17:55:07.036Z,5.30
2019-04-16T17:57:46.296Z,5.47
2019-04-16T18:00:34.726Z,5.60
2019-04-16T18:03:27.073Z,4.13
2019-04-16T18:06:12.433Z,4.03
2019-04-16T18:09:12.282Z,3.80
2019-04-16T18:12:06.541Z,3.97
2019-04-16T18:14:54.021Z,4.17
2019-04-16T18:17:46.355Z,4.37
2019-04-16T18:20:16.980Z,4.50
2019-04-16T18:23:10.031Z,4.83
2019-04-16T18:25:57.911Z,4.90
2019-04-16T18:28:30.801Z,4.10
2019-04-16T18:31:07.802Z,4.47
2019-04-16T18:33:50.516Z,3.43
2019-04-16T18:36:41.560Z,3.77
2019-04-16T18:39:37.407Z,4.13
2019-04-16T18:42:37.149Z,4.47
2019-04-16T18:45:19.608Z,5.00
2019-04-16T18:48:13.941Z,4.00
2019-04-16T18:50:44.044Z,4.53
2019-04-16T18:53:13.124Z,4.47
2019-04-16T18:55:42.269Z,5.73
2019-04-16T18:58:11.272Z,5.60
2019-04-16T19:00:59.393Z,4.30
2019-04-16T19:03:28.434Z,5.17
2019-04-16T19:05:57.295Z,4.30
2019-04-16T19:08:40.909Z,3.23
2019-04-16T19:10:56.560Z,3.80
2019-04-16T19:13:25.685Z,3.50
2019-04-16T19:15:54.795Z,3.67
2019-04-16T19:18:24.110Z,6.20
2019-04-16T19:20:53.514Z,6.00
2019-04-16T19:23:22.977Z,3.93
2019-04-16T19:25:55.426Z,4.03
2019-04-16T19:28:23.937Z,3.80
2019-04-16T19:30:52.980Z,3.70
2019-04-16T19:33:21.535Z,4.43
2019-04-16T19:35:51.985Z,4.70
2019-04-16T19:38:21.249Z,3.60
2019-04-16T19:40:54.928Z,4.17
2019-04-16T19:43:24.175Z,3.93
2019-04-16T19:45:53.444Z,5.13
2019-04-16T19:48:34.775Z,5.30
2019-04-16T19:50:53.516Z,5.60
2019-04-16T19:53:22.624Z,5.00
2019-04-16T19:55:51.093Z,5.50
2019-04-16T19:58:22.720Z,4.37
2019-04-16T20:00:53.942Z,6.47
2019-04-16T20:03:22.640Z,7.47
2019-04-16T20:05:51.702Z,5.73
2019-04-16T20:08:20.583Z,4.90
2019-04-16T20:10:49.538Z,4.43
2019-04-16T20:13:18.561Z,4.80
2019-04-16T20:15:47.291Z,5.10
2019-04-16T20:18:16.767Z,6.00
2019-04-16T20:20:52.074Z,6.50
2019-04-16T20:23:21.040Z,7.70
2019-04-16T20:25:50.183Z,8.90
2019-04-16T20:28:19.218Z,8.03
2019-04-16T20:30:48.015Z,6.03
2019-04-16T20:33:16.949Z,6.07
2019-04-16T20:35:50.338Z,5.80
2019-04-16T20:38:18.712Z,5.47
2019-04-16T20:40:47.793Z,6.20
2019-04-16T20:43:17.130Z,5.73
2019-04-16T20:45:46.777Z,6.00
2019-04-16T20:48:29.743Z,7.23
2019-04-16T20:51:20.420Z,6.50
2019-04-16T20:54:16.309Z,5.50
2019-04-16T20:56:45.600Z,5.20
2019-04-16T20:59:14.727Z,5.70
2019-04-16T21:01:44.905Z,3.93
2019-04-16T21:04:14.148Z,4.57
2019-04-16T21:06:49.556Z,4.63
2019-04-16T21:09:18.018Z,4.40
2019-04-16T21:11:47.365Z,4.63
2019-04-16T21:14:22.756Z,4.63
2019-04-16T21:16:55.180Z,4.10
2019-04-16T21:19:46.505Z,5.20
2019-04-16T21:22:19.304Z,4.37
2019-04-16T21:24:53.918Z,4.30
2019-04-16T21:27:22.980Z,5.23
2019-04-16T21:29:51.972Z,4.13
2019-04-16T21:32:48.761Z,4.90
2019-04-16T21:35:45.325Z,4.10
2019-04-16T21:38:36.004Z,5.00
2019-04-16T21:41:11.810Z,4.07
2019-04-16T21:43:40.402Z,4.47
2019-04-16T21:46:09.193Z,4.67
2019-04-16T21:48:38.019Z,4.13
2019-04-16T21:51:07.695Z,4.60
2019-04-16T21:53:36.489Z,4.30
2019-04-16T21:56:17.541Z,4.77
2019-04-16T21:59:09.926Z,4.70
2019-04-16T22:05:17.827Z,3.90
2019-04-16T22:08:08.288Z,4.57
2019-04-16T22:10:48.693Z,4.30
2019-04-16T22:13:20.679Z,4.40
2019-04-16T22:15:49.438Z,4.03
2019-04-16T22:18:19.895Z,4.40
2019-04-16T22:23:42.181Z,3.53
2019-04-16T22:26:11.309Z,4.17
2019-04-16T22:28:45.800Z,4.63
2019-04-16T22:31:15.778Z,4.63
2019-04-16T22:33:47.859Z,3.80
2019-04-16T22:36:44.042Z,3.63
2019-04-16T22:39:24.312Z,4.00
2019-04-16T22:42:20.960Z,4.73
2019-04-16T22:45:18.570Z,4.50
2019-04-16T22:47:47.730Z,4.00
2019-04-16T22:50:17.255Z,3.70
2019-04-16T22:52:47.002Z,3.60
2019-04-16T22:55:15.615Z,4.47
2019-04-16T22:57:44.259Z,4.07
2019-04-16T23:00:24.688Z,4.00
2019-04-16T23:02:53.399Z,4.00
2019-04-16T23:05:22.186Z,4.33
2019-04-16T23:07:50.903Z,4.13
2019-04-16T23:10:21.211Z,4.30
2019-04-16T23:12:49.966Z,3.73
2019-04-16T23:15:18.429Z,4.23
2019-04-16T23:17:47.246Z,4.20
2019-04-16T23:20:29.725Z,4.33
2019-04-16T23:22:58.841Z,5.20
2019-04-16T23:25:35.468Z,4.70
2019-04-16T23:28:11.841Z,4.30
2019-04-16T23:30:40.590Z,4.30
2019-04-16T23:33:10.948Z,4.40
2019-04-16T23:35:44.420Z,4.57
2019-04-16T23:38:10.188Z,3.93
2019-04-16T23:40:40.836Z,3.70
2019-04-16T23:43:23.139Z,4.53
2019-04-16T23:46:12.050Z,4.93
2019-04-16T23:49:03.458Z,4.23
2019-04-16T23:51:46.722Z,4.17
2019-04-16T23:54:28.656Z,4.30
2019-04-16T23:57:26.380Z,4.30
